Time;durP1;ratioP1;P1;durP2;ratioP2;P2;SDS_P1;SDS_P2;PMS_P1;PMS_P2;Temp;Humidity;BMP_temperature;BMP_pressure;BME280_temperature;BME280_humidity;BME280_pressure;Samples;Min_cycle;Max_cycle;Signal;HPM_P1;HPM_P2
2023/04/27 00:00:46;;;;;;;2.05;1.42;;;9.20;99.00;;;;;;5072537;28;20070;-59
2023/04/27 00:03:12;;;;;;;2.85;1.40;;;9.20;99.10;;;;;;5074415;28;20077;-54
2023/04/27 00:05:38;;;;;;;1.90;1.23;;;9.20;99.10;;;;;;5071890;28;20025;-56
2023/04/27 00:08:06;;;;;;;1.10;1.00;;;9.10;98.90;;;;;;5088518;28;20032;-54
2023/04/27 00:10:32;;;;;;;2.17;1.30;;;9.10;98.90;;;;;;4998019;28;20041;-58
2023/04/27 00:12:58;;;;;;;1.05;0.95;;;9.10;98.90;;;;;;5078326;28;20028;-56
2023/04/27 00:15:24;;;;;;;1.67;1.10;;;9.10;98.90;;;;;;5074981;28;20024;-55
2023/04/27 00:17:50;;;;;;;1.70;1.48;;;9.10;99.00;;;;;;4991796;28;20036;-55
2023/04/27 00:20:16;;;;;;;4.57;2.17;;;9.10;99.00;;;;;;5072611;28;20121;-56
2023/04/27 00:22:41;;;;;;;1.80;1.63;;;9.10;99.10;;;;;;5034324;28;20038;-57
2023/04/27 00:25:07;;;;;;;1.30;1.20;;;9.10;99.10;;;;;;5033183;28;20034;-56
2023/04/27 00:27:33;;;;;;;3.45;1.77;;;9.10;99.10;;;;;;5013319;28;20054;-55
2023/04/27 00:29:59;;;;;;;1.48;1.30;;;9.10;99.10;;;;;;5036286;28;20083;-53
2023/04/27 00:32:24;;;;;;;2.55;1.30;;;9.10;99.20;;;;;;5027038;28;20157;-60
2023/04/27 00:34:50;;;;;;;2.13;1.25;;;9.10;99.30;;;;;;5036195;28;20041;-61
2023/04/27 00:37:17;;;;;;;2.38;0.95;;;9.10;99.30;;;;;;5012686;28;20034;-59
2023/04/27 00:39:43;;;;;;;1.65;1.55;;;9.00;99.30;;;;;;5026242;28;20053;-55
2023/04/27 00:42:12;;;;;;;1.15;1.05;;;9.00;99.40;;;;;;5037466;28;20049;-54
2023/04/27 00:44:38;;;;;;;0.70;0.65;;;8.90;99.40;;;;;;5042405;28;20449;-58
2023/04/27 00:47:04;;;;;;;1.02;0.90;;;8.80;99.50;;;;;;5039483;28;20037;-54
2023/04/27 00:49:31;;;;;;;0.85;0.85;;;8.80;99.70;;;;;;5033211;28;20129;-57
2023/04/27 00:51:57;;;;;;;1.23;0.90;;;8.70;99.80;;;;;;5033574;28;20026;-55
2023/04/27 00:54:23;;;;;;;1.42;1.25;;;8.70;99.90;;;;;;5030236;28;20408;-52
2023/04/27 00:56:50;;;;;;;1.92;1.17;;;8.70;99.90;;;;;;5037467;28;20033;-54
2023/04/27 00:59:18;;;;;;;0.95;0.90;;;8.70;99.90;;;;;;5002643;28;20527;-56
2023/04/27 01:01:45;;;;;;;1.38;1.27;;;8.70;99.90;;;;;;5061391;28;20036;-61
2023/04/27 01:04:11;;;;;;;2.53;1.10;;;8.70;99.90;;;;;;5056712;28;20029;-54
2023/04/27 01:06:38;;;;;;;1.23;1.10;;;8.70;99.90;;;;;;5058687;28;20496;-55
2023/04/27 01:09:05;;;;;;;0.85;0.85;;;8.70;99.90;;;;;;5064288;28;20047;-57
2023/04/27 01:11:34;;;;;;;1.33;1.00;;;8.70;99.90;;;;;;5059994;28;20044;-55
2023/04/27 01:14:05;;;;;;;1.52;1.42;;;8.50;99.90;;;;;;5064005;28;20102;-57
2023/04/27 01:16:32;;;;;;;0.93;0.80;;;8.50;99.90;;;;;;5061132;28;20029;-57
2023/04/27 01:18:58;;;;;;;1.08;0.98;;;8.50;99.90;;;;;;5056450;28;20469;-57
2023/04/27 01:21:25;;;;;;;0.82;0.82;;;8.50;99.90;;;;;;5048314;28;20159;-58
2023/04/27 01:23:51;;;;;;;1.33;1.08;;;8.40;99.90;;;;;;5034430;28;21177;-54
2023/04/27 01:26:17;;;;;;;1.55;1.38;;;8.40;99.90;;;;;;5053715;28;20037;-52
2023/04/27 01:28:43;;;;;;;1.38;1.27;;;8.50;99.90;;;;;;5017930;28;20033;-56
2023/04/27 01:31:10;;;;;;;3.55;1.33;;;8.50;99.90;;;;;;5003566;28;20038;-52
2023/04/27 01:33:36;;;;;;;1.88;1.67;;;8.50;99.90;;;;;;5012216;28;20623;-56
2023/04/27 01:36:02;;;;;;;2.42;1.63;;;8.50;99.90;;;;;;5019063;28;20029;-55
2023/04/27 01:38:28;;;;;;;1.48;1.30;;;8.50;99.90;;;;;;4988627;28;20058;-56
2023/04/27 01:41:00;;;;;;;1.30;1.00;;;8.30;99.90;;;;;;5023347;28;20116;-54
2023/04/27 01:43:27;;;;;;;1.17;1.00;;;;;;;;;;4992820;28;20401;-57
2023/04/27 01:45:53;;;;;;;2.33;1.58;;;8.10;99.90;;;;;;4990892;28;20045;-55
2023/04/27 01:48:19;;;;;;;2.42;1.20;;;;;;;;;;5016268;28;20054;-57
2023/04/27 01:50:45;;;;;;;1.42;1.33;;;7.90;99.90;;;;;;5014944;28;20042;-52
2023/04/27 01:53:10;;;;;;;1.77;1.25;;;7.70;99.90;;;;;;5011972;28;20489;-55
2023/04/27 01:55:36;;;;;;;2.40;1.30;;;7.50;99.90;;;;;;5014718;28;20421;-58
2023/04/27 01:58:02;;;;;;;1.13;0.93;;;7.50;99.90;;;;;;4981460;28;20124;-54
2023/04/27 02:00:28;;;;;;;0.85;0.85;;;7.30;99.90;;;;;;5054618;28;20037;-55
2023/04/27 02:02:56;;;;;;;1.80;1.48;;;7.10;99.90;;;;;;5070256;28;20056;-57
2023/04/27 02:05:22;;;;;;;1.98;1.48;;;6.80;99.90;;;;;;5079595;28;20456;-53
2023/04/27 02:07:48;;;;;;;2.08;1.45;;;6.60;99.90;;;;;;5080525;28;20028;-55
2023/04/27 02:10:14;;;;;;;1.27;1.13;;;6.50;99.90;;;;;;5068091;28;20029;-59
2023/04/27 02:12:40;;;;;;;3.25;1.30;;;6.60;99.90;;;;;;5043039;28;20080;-57
2023/04/27 02:15:07;;;;;;;1.30;1.02;;;6.70;99.90;;;;;;5064392;28;20417;-58
2023/04/27 02:17:37;;;;;;;2.30;1.45;;;6.80;99.90;;;;;;5022132;28;20393;-50
2023/04/27 02:20:05;;;;;;;2.25;2.05;;;6.70;99.90;;;;;;5082175;28;20118;-54
2023/04/27 02:22:31;;;;;;;1.35;1.25;;;6.80;99.90;;;;;;5026334;28;20041;-52
2023/04/27 02:24:58;;;;;;;3.33;1.58;;;6.70;99.90;;;;;;5080071;28;20115;-52
2023/04/27 02:27:23;;;;;;;2.50;1.50;;;6.80;99.90;;;;;;5079049;28;20036;-54
2023/04/27 02:29:49;;;;;;;2.70;1.38;;;6.80;99.90;;;;;;5081402;28;20031;-57
2023/04/27 02:32:15;;;;;;;1.98;1.58;;;6.80;99.90;;;;;;5073865;28;20435;-53
2023/04/27 02:34:41;;;;;;;2.05;1.23;;;7.00;99.90;;;;;;5077009;28;20215;-59
2023/04/27 02:37:06;;;;;;;3.05;1.65;;;7.10;99.90;;;;;;5082048;28;20032;-57
2023/04/27 02:39:32;;;;;;;3.55;1.75;;;7.10;99.90;;;;;;5087674;28;20027;-58
2023/04/27 02:41:58;;;;;;;2.88;2.15;;;7.00;99.90;;;;;;5080596;28;20028;-54
2023/04/27 02:44:23;;;;;;;2.03;1.80;;;7.00;99.90;;;;;;5035521;28;20523;-55
2023/04/27 02:46:49;;;;;;;2.25;2.05;;;7.20;99.90;;;;;;5073944;28;20032;-53
2023/04/27 02:49:15;;;;;;;1.60;1.50;;;7.30;99.90;;;;;;5072867;28;20044;-59
2023/04/27 02:51:41;;;;;;;2.40;1.73;;;7.40;99.90;;;;;;5069015;28;20040;-57
2023/04/27 02:54:08;;;;;;;2.88;2.35;;;7.50;99.90;;;;;;5076847;28;20065;-57
2023/04/27 02:56:34;;;;;;;3.75;2.17;;;7.50;99.90;;;;;;4959044;28;20049;-54
2023/04/27 02:59:00;;;;;;;2.95;1.98;;;7.60;99.90;;;;;;5012799;28;20038;-60
2023/04/27 03:01:25;;;;;;;4.68;3.22;;;7.30;99.90;;;;;;5012680;28;20486;-59
2023/04/27 03:03:51;;;;;;;3.17;2.33;;;7.30;99.90;;;;;;5023993;28;20104;-54
2023/04/27 03:06:17;;;;;;;2.70;2.00;;;;;;;;;;5014733;28;20168;-51
2023/04/27 03:08:43;;;;;;;3.80;2.40;;;;;;;;;;4990521;28;20066;-52
2023/04/27 03:11:11;;;;;;;4.00;2.35;;;;;;;;;;5013971;28;20121;-54
2023/04/27 03:13:40;;;;;;;4.97;2.78;;;;;;;;;;4980097;28;20141;-54
2023/04/27 03:16:10;;;;;;;4.00;2.90;;;;;;;;;;5025018;28;20055;-53
2023/04/27 03:18:37;;;;;;;3.72;2.55;;;;;;;;;;5010480;28;20124;-54
2023/04/27 03:21:09;;;;;;;6.32;4.53;;;6.90;99.90;;;;;;5012172;28;20026;-53
2023/04/27 03:23:36;;;;;;;3.90;2.78;;;7.00;99.90;;;;;;5010246;28;20045;-57
2023/04/27 03:26:12;;;;;;;4.50;3.30;;;6.90;99.90;;;;;;5017729;28;20445;-54
2023/04/27 03:28:38;;;;;;;5.70;3.60;;;;;;;;;;5070378;28;20052;-57
2023/04/27 03:31:09;;;;;;;4.00;2.95;;;7.60;99.90;;;;;;5074267;28;20471;-56
2023/04/27 03:33:36;;;;;;;4.25;2.60;;;7.40;99.90;;;;;;5067177;28;20664;-55
2023/04/27 03:36:03;;;;;;;3.65;2.60;;;7.40;99.90;;;;;;5073804;28;20031;-57
2023/04/27 03:38:29;;;;;;;3.42;2.22;;;7.50;99.90;;;;;;5079622;28;20158;-57
2023/04/27 03:40:56;;;;;;;4.50;2.50;;;7.50;99.90;;;;;;5082652;28;20046;-59
2023/04/27 03:43:22;;;;;;;3.35;2.42;;;7.40;99.90;;;;;;5075439;28;20032;-54
2023/04/27 03:45:48;;;;;;;3.17;2.15;;;7.30;99.90;;;;;;5083639;28;20593;-54
2023/04/27 03:48:15;;;;;;;3.03;2.03;;;7.30;99.90;;;;;;5069092;28;20047;-53
2023/04/27 03:50:42;;;;;;;8.13;3.85;;;7.10;99.90;;;;;;5075513;28;20060;-58
2023/04/27 03:53:08;;;;;;;4.15;1.83;;;7.20;99.90;;;;;;5016553;28;20046;-59
2023/04/27 03:55:38;;;;;;;3.13;1.50;;;7.10;99.90;;;;;;5004817;28;20141;-54
2023/04/27 03:58:03;;;;;;;3.13;1.85;;;7.10;99.90;;;;;;4969631;28;20133;-56
2023/04/27 04:00:30;;;;;;;2.85;2.20;;;7.20;99.90;;;;;;5010701;28;20109;-56
2023/04/27 04:02:56;;;;;;;2.65;1.70;;;7.20;99.90;;;;;;5016359;28;20529;-60
2023/04/27 04:05:22;;;;;;;2.28;1.98;;;7.20;99.90;;;;;;5018137;28;20141;-72
2023/04/27 04:07:48;;;;;;;2.25;1.67;;;7.20;99.90;;;;;;5021111;28;20069;-60
2023/04/27 04:10:13;;;;;;;2.65;2.25;;;7.40;99.90;;;;;;4984107;28;20095;-54
2023/04/27 04:12:39;;;;;;;4.65;2.40;;;7.30;99.90;;;;;;5016567;28;20038;-54
2023/04/27 04:15:06;;;;;;;4.45;2.47;;;7.50;99.90;;;;;;5012488;28;20457;-52
2023/04/27 04:17:32;;;;;;;3.58;2.30;;;7.50;99.90;;;;;;4998752;28;20180;-55
2023/04/27 04:19:59;;;;;;;1.70;1.58;;;7.60;99.90;;;;;;5015575;28;20111;-60
2023/04/27 04:22:25;;;;;;;3.60;2.25;;;7.50;99.90;;;;;;4962862;28;20443;-57
2023/04/27 04:24:51;;;;;;;4.43;2.05;;;7.70;99.90;;;;;;5005801;28;20049;-53
2023/04/27 04:27:17;;;;;;;2.28;1.90;;;7.60;99.90;;;;;;5013395;28;20045;-55
2023/04/27 04:29:42;;;;;;;2.83;2.00;;;7.70;99.90;;;;;;5014507;28;20505;-58
2023/04/27 04:32:08;;;;;;;3.10;1.58;;;7.90;99.90;;;;;;5013356;28;20038;-55
2023/04/27 04:34:35;;;;;;;2.45;1.63;;;8.00;99.90;;;;;;4949135;28;20038;-55
2023/04/27 04:37:01;;;;;;;2.33;1.77;;;8.00;99.90;;;;;;5014424;28;20041;-53
2023/04/27 04:39:32;;;;;;;1.58;1.48;;;8.00;99.90;;;;;;5014425;28;20034;-58
2023/04/27 04:41:58;;;;;;;3.63;1.87;;;8.10;99.90;;;;;;5012106;28;20034;-56
2023/04/27 04:44:24;;;;;;;3.45;1.58;;;7.90;99.90;;;;;;5014041;28;20275;-55
2023/04/27 04:46:50;;;;;;;2.97;1.23;;;8.00;99.90;;;;;;5012593;28;20026;-55
2023/04/27 04:49:16;;;;;;;1.88;1.48;;;8.10;99.90;;;;;;5014021;28;20089;-57
2023/04/27 04:51:44;;;;;;;2.83;1.73;;;8.10;99.90;;;;;;5014730;28;20033;-52
2023/04/27 04:54:10;;;;;;;1.75;1.38;;;8.00;99.90;;;;;;5055658;28;20056;-56
2023/04/27 04:56:36;;;;;;;2.85;1.50;;;8.00;99.90;;;;;;5073991;28;20115;-54
2023/04/27 04:59:02;;;;;;;2.72;2.08;;;8.00;99.90;;;;;;5038062;28;20115;-56
2023/04/27 05:01:28;;;;;;;4.00;1.60;;;8.10;99.90;;;;;;5076699;28;20060;-57
2023/04/27 05:03:54;;;;;;;2.85;1.50;;;8.20;99.90;;;;;;5068927;28;20396;-59
2023/04/27 05:06:20;;;;;;;3.22;2.15;;;8.20;99.90;;;;;;5069689;28;20443;-52
2023/04/27 05:08:46;;;;;;;2.20;1.50;;;8.20;99.90;;;;;;5076434;28;20453;-56
2023/04/27 05:11:11;;;;;;;6.03;1.95;;;8.30;99.90;;;;;;5077190;28;20035;-56
2023/04/27 05:13:39;;;;;;;3.63;1.88;;;8.50;99.90;;;;;;5072336;28;20029;-56
2023/04/27 05:16:05;;;;;;;2.92;2.05;;;8.70;99.90;;;;;;5078079;28;20024;-58
2023/04/27 05:18:31;;;;;;;1.83;1.67;;;8.50;99.90;;;;;;5081466;28;20634;-54
2023/04/27 05:20:57;;;;;;;3.10;2.25;;;8.70;99.90;;;;;;5075268;28;20025;-54
2023/04/27 05:23:23;;;;;;;3.30;1.52;;;;;;;;;;5042177;28;20040;-56
2023/04/27 05:25:49;;;;;;;4.22;2.28;;;9.40;99.90;;;;;;5050279;28;20039;-54
2023/04/27 05:28:15;;;;;;;1.73;1.50;;;9.50;99.90;;;;;;5048114;28;20465;-52
2023/04/27 05:30:40;;;;;;;2.78;1.52;;;9.40;99.90;;;;;;5080483;28;20041;-56
2023/04/27 05:33:06;;;;;;;2.45;1.30;;;9.60;99.90;;;;;;5083469;28;20025;-53
2023/04/27 05:35:32;;;;;;;2.75;2.13;;;9.80;99.90;;;;;;5079424;28;20494;-54
2023/04/27 05:37:58;;;;;;;2.45;1.67;;;10.10;99.90;;;;;;5081635;28;20082;-53
2023/04/27 05:40:24;;;;;;;2.28;1.50;;;10.20;99.90;;;;;;5076966;28;20419;-55
2023/04/27 05:42:50;;;;;;;2.33;1.77;;;10.20;99.90;;;;;;5077758;28;20043;-53
2023/04/27 05:45:15;;;;;;;3.13;1.85;;;10.20;99.90;;;;;;5086949;28;20480;-55
2023/04/27 05:47:41;;;;;;;3.00;1.77;;;10.30;99.90;;;;;;5019728;28;20037;-57
2023/04/27 05:50:08;;;;;;;1.10;1.00;;;10.30;99.90;;;;;;5073540;28;20024;-54
2023/04/27 05:52:33;;;;;;;3.05;1.60;;;10.20;99.90;;;;;;4996019;28;20040;-57
2023/04/27 05:54:59;;;;;;;3.00;1.55;;;10.30;99.90;;;;;;5074556;28;20059;-53
2023/04/27 05:57:26;;;;;;;1.50;1.10;;;10.20;99.90;;;;;;5027447;28;20044;-57
2023/04/27 05:59:53;;;;;;;2.22;1.77;;;;;;;;;;5016351;28;20041;-54
2023/04/27 06:02:19;;;;;;;2.67;1.70;;;10.40;99.90;;;;;;5071320;28;20012;-56
2023/04/27 06:04:45;;;;;;;1.75;1.30;;;;;;;;;;5082173;28;20027;-56
2023/04/27 06:07:13;;;;;;;1.08;1.02;;;;;;;;;;5053650;28;20031;-54
2023/04/27 06:09:39;;;;;;;1.73;1.27;;;;;;;;;;5064416;28;20040;-54
2023/04/27 06:12:06;;;;;;;0.73;0.52;;;;;;;;;;5076972;28;20033;-54
2023/04/27 06:14:33;;;;;;;3.10;1.48;;;10.40;99.90;;;;;;5068183;28;20056;-54
2023/04/27 06:17:00;;;;;;;1.58;1.17;;;;;;;;;;5079997;28;20498;-57
2023/04/27 06:19:25;;;;;;;2.80;1.65;;;10.50;99.90;;;;;;5024692;28;20369;-55
2023/04/27 06:21:55;;;;;;;2.15;1.58;;;10.70;99.90;;;;;;5084232;28;20031;-55
2023/04/27 06:24:22;;;;;;;1.23;1.13;;;10.70;99.90;;;;;;5072273;28;20484;-54
2023/04/27 06:26:50;;;;;;;1.45;1.33;;;10.60;99.90;;;;;;5056210;28;20487;-52
2023/04/27 06:29:16;;;;;;;2.63;1.55;;;10.60;99.90;;;;;;5033123;28;20490;-52
2023/04/27 06:31:42;;;;;;;2.95;1.52;;;10.80;99.90;;;;;;5070597;28;20033;-50
2023/04/27 06:34:08;;;;;;;1.52;1.33;;;10.80;99.90;;;;;;5070018;28;20021;-57
2023/04/27 06:36:34;;;;;;;1.23;1.00;;;10.70;99.90;;;;;;5048456;28;20046;-58
2023/04/27 06:39:00;;;;;;;2.85;1.20;;;10.80;99.90;;;;;;5067376;28;20024;-56
2023/04/27 06:41:26;;;;;;;1.45;1.35;;;10.80;99.90;;;;;;5081810;28;20167;-57
2023/04/27 06:43:52;;;;;;;2.80;1.80;;;11.00;99.90;;;;;;5050570;28;20036;-57
2023/04/27 06:46:19;;;;;;;3.05;2.20;;;;;;;;;;5075246;28;20036;-58
2023/04/27 06:48:45;;;;;;;2.50;1.48;;;11.20;99.90;;;;;;5071724;28;20043;-51
2023/04/27 06:51:11;;;;;;;1.55;1.38;;;11.40;99.90;;;;;;5078331;28;20526;-52
2023/04/27 06:53:38;;;;;;;1.85;1.42;;;11.60;99.90;;;;;;5032254;28;20107;-54
2023/04/27 06:56:04;;;;;;;1.48;1.30;;;11.50;99.90;;;;;;5033191;28;20060;-56
2023/04/27 06:58:30;;;;;;;1.60;1.30;;;11.50;99.90;;;;;;5018097;28;20045;-55
2023/04/27 07:00:56;;;;;;;1.27;1.17;;;11.50;99.90;;;;;;5032818;28;20032;-57
2023/04/27 07:03:22;;;;;;;2.25;1.55;;;11.80;99.90;;;;;;5030121;28;20136;-56
2023/04/27 07:05:47;;;;;;;2.45;1.30;;;12.00;99.90;;;;;;5038409;28;20060;-56
2023/04/27 07:08:13;;;;;;;2.78;1.77;;;12.20;99.90;;;;;;5037498;28;20400;-58
2023/04/27 07:10:39;;;;;;;3.15;1.17;;;12.10;99.90;;;;;;5025876;28;20041;-54
2023/04/27 07:13:05;;;;;;;2.60;1.58;;;12.20;99.90;;;;;;5032013;28;20046;-58
2023/04/27 07:15:32;;;;;;;2.55;1.95;;;;;;;;;;5035933;28;20037;-56
2023/04/27 07:17:58;;;;;;;2.33;1.30;;;;;;;;;;5024214;28;20037;-55
2023/04/27 07:20:24;;;;;;;3.15;1.67;;;;;;;;;;5033055;28;20041;-58
2023/04/27 07:22:50;;;;;;;2.08;1.30;;;;;;;;;;5036577;28;20078;-58
2023/04/27 07:25:16;;;;;;;1.45;1.15;;;;;;;;;;5020663;28;20041;-55
2023/04/27 07:27:44;;;;;;;2.78;1.35;;;;;;;;;;5069147;28;20041;-57
2023/04/27 07:30:12;;;;;;;0.43;0.43;;;12.80;99.90;;;;;;5072041;28;20059;-59
2023/04/27 07:32:40;;;;;;;1.55;1.45;;;;;;;;;;5023036;28;20128;-55
2023/04/27 07:35:08;;;;;;;2.63;1.33;;;12.60;99.90;;;;;;5074196;28;20070;-54
2023/04/27 07:37:36;;;;;;;1.48;1.10;;;12.90;99.90;;;;;;5069040;28;20033;-55
2023/04/27 07:40:09;;;;;;;1.48;1.30;;;13.00;99.90;;;;;;5032379;28;20079;-57
2023/04/27 07:42:38;;;;;;;1.88;1.23;;;13.10;99.90;;;;;;5073352;28;20033;-56
2023/04/27 07:45:04;;;;;;;1.13;1.00;;;12.90;99.90;;;;;;5081745;28;20033;-57
2023/04/27 07:47:31;;;;;;;1.05;0.95;;;13.20;99.90;;;;;;5050289;28;20041;-55
2023/04/27 07:49:56;;;;;;;1.73;1.08;;;13.30;99.90;;;;;;5070395;28;20120;-56
2023/04/27 07:52:22;;;;;;;1.38;1.27;;;13.50;99.90;;;;;;5069486;28;20112;-59
2023/04/27 07:54:48;;;;;;;1.58;1.08;;;13.50;99.90;;;;;;5072359;28;20976;-54
2023/04/27 07:57:13;;;;;;;0.45;0.45;;;14.00;99.90;;;;;;5076372;28;20089;-56
2023/04/27 07:59:40;;;;;;;1.73;1.13;;;;;;;;;;5080717;28;20068;-65
2023/04/27 08:02:06;;;;;;;1.38;0.95;;;;;;;;;;5009897;28;20029;-54
2023/04/27 08:04:32;;;;;;;0.65;0.43;;;;;;;;;;5060549;28;20047;-60
2023/04/27 08:06:58;;;;;;;1.50;1.20;;;;;;;;;;5078543;28;20031;-53
2023/04/27 08:09:24;;;;;;;1.30;1.20;;;;;;;;;;5080477;28;20510;-54
2023/04/27 08:11:50;;;;;;;1.60;1.30;;;;;;;;;;5075079;28;20535;-53
2023/04/27 08:14:16;;;;;;;0.32;0.30;;;;;;;;;;5017708;28;20047;-57
2023/04/27 08:16:43;;;;;;;0.70;0.57;;;;;;;;;;5068181;28;20083;-54
2023/04/27 08:19:10;;;;;;;0.70;0.70;;;;;;;;;;5081460;28;20028;-54
2023/04/27 08:21:37;;;;;;;2.50;1.00;;;;;;;;;;5082760;28;20107;-49
2023/04/27 08:24:04;;;;;;;0.80;0.77;;;;;;;;;;5076424;28;20039;-53
2023/04/27 08:26:30;;;;;;;2.45;1.10;;;14.60;96.70;;;;;;5073745;28;20372;-51
2023/04/27 08:28:56;;;;;;;1.10;0.63;;;14.70;97.80;;;;;;5076588;28;20043;-55
2023/04/27 08:31:23;;;;;;;0.68;0.68;;;14.60;98.30;;;;;;5076249;28;20040;-53
2023/04/27 08:33:50;;;;;;;1.52;0.60;;;14.20;95.60;;;;;;5074231;28;20024;-49
2023/04/27 08:36:15;;;;;;;2.88;0.77;;;14.50;96.60;;;;;;5087348;28;20035;-54
2023/04/27 08:38:41;;;;;;;1.20;1.10;;;15.00;95.90;;;;;;5074936;28;20033;-50
2023/04/27 08:41:07;;;;;;;0.73;0.70;;;;;;;;;;5078142;28;20039;-53
2023/04/27 08:43:34;;;;;;;0.65;0.55;;;15.00;99.90;;;;;;5067837;28;20037;-53
2023/04/27 08:46:01;;;;;;;1.30;1.00;;;14.90;98.10;;;;;;5044729;28;20048;-55
2023/04/27 08:48:27;;;;;;;1.65;1.25;;;15.10;96.20;;;;;;5067004;28;20047;-53
2023/04/27 08:50:54;;;;;;;1.15;0.90;;;15.40;99.90;;;;;;4997267;28;20551;-54
2023/04/27 08:53:21;;;;;;;0.52;0.38;;;15.20;99.90;;;;;;4984406;28;20037;-53
2023/04/27 08:55:47;;;;;;;1.27;1.15;;;;;;;;;;4977415;28;20064;-55
2023/04/27 08:58:13;;;;;;;0.90;0.70;;;15.30;99.90;;;;;;4995740;28;20034;-53
2023/04/27 09:00:44;;;;;;;0.52;0.52;;;;;;;;;;4996577;28;20065;-52
2023/04/27 09:03:22;;;;;;;0.40;0.40;;;;;;;;;;4979311;28;20078;-54
2023/04/27 09:05:48;;;;;;;0.93;0.73;;;15.20;99.40;;;;;;4998796;28;20635;-51
2023/04/27 09:08:14;;;;;;;0.93;0.65;;;;;;;;;;5001093;28;20046;-51
2023/04/27 09:10:50;;;;;;;0.77;0.77;;;15.80;99.60;;;;;;5010296;28;20137;-51
2023/04/27 09:13:16;;;;;;;1.27;0.68;;;16.00;95.10;;;;;;4998696;28;20061;-52
2023/04/27 09:15:46;;;;;;;0.70;0.57;;;;;;;;;;5001585;28;20117;-53
2023/04/27 09:18:34;;;;;;;2.35;0.70;;;;;;;;;;5002196;28;20524;-53
2023/04/27 09:21:00;;;;;;;2.08;1.08;;;;;;;;;;5011091;28;20094;-50
2023/04/27 09:23:29;;;;;;;0.50;0.50;;;16.70;99.90;;;;;;5059713;28;20033;-51
2023/04/27 09:26:00;;;;;;;1.00;0.65;;;16.90;99.90;;;;;;5059592;28;20028;-54
2023/04/27 09:28:27;;;;;;;1.15;0.88;;;16.90;99.90;;;;;;5058131;28;20045;-54
2023/04/27 09:30:54;;;;;;;0.63;0.63;;;;;;;;;;5064245;28;20040;-53
2023/04/27 09:33:28;;;;;;;0.70;0.70;;;16.50;99.90;;;;;;5060270;28;20471;-51
2023/04/27 09:35:55;;;;;;;1.05;0.82;;;;;;;;;;5059567;28;20040;-54
2023/04/27 09:38:22;;;;;;;3.13;0.93;;;;;;;;;;5026209;28;20472;-53
2023/04/27 09:40:49;;;;;;;0.30;0.30;;;17.20;99.90;;;;;;5058341;28;20456;-51
2023/04/27 09:43:16;;;;;;;2.20;0.85;;;17.00;99.90;;;;;;5055179;28;20036;-54
2023/04/27 09:45:42;;;;;;;1.52;0.75;;;17.10;99.90;;;;;;5054166;28;20028;-51
2023/04/27 09:48:09;;;;;;;0.82;0.82;;;17.70;99.90;;;;;;4995580;28;20084;-51
2023/04/27 09:50:38;;;;;;;0.63;0.38;;;17.70;99.90;;;;;;5043939;28;20037;-54
2023/04/27 09:53:07;;;;;;;0.60;0.60;;;17.20;99.00;;;;;;5057971;28;20028;-55
2023/04/27 09:55:47;;;;;;;1.55;1.15;;;17.30;98.80;;;;;;5069709;28;20059;-51
2023/04/27 09:58:25;;;;;;;0.80;0.75;;;17.40;99.20;;;;;;5032887;28;20512;-54
2023/04/27 10:01:06;;;;;;;0.40;0.40;;;17.30;99.10;;;;;;5077299;28;20025;-53
2023/04/27 10:03:31;;;;;;;0.50;0.50;;;17.40;98.30;;;;;;5067533;28;20060;-53
2023/04/27 10:06:09;;;;;;;3.10;1.10;;;17.60;97.40;;;;;;5078513;28;20028;-55
2023/04/27 10:08:35;;;;;;;0.70;0.63;;;17.50;97.50;;;;;;5079344;28;20048;-53
2023/04/27 10:11:12;;;;;;;0.90;0.90;;;;;;;;;;5074847;28;20045;-56
2023/04/27 10:13:38;;;;;;;0.98;0.55;;;;;;;;;;5070915;28;20089;-54
2023/04/27 10:16:17;;;;;;;0.88;0.68;;;17.70;98.20;;;;;;5077500;28;20043;-56
2023/04/27 10:18:51;;;;;;;1.05;0.43;;;;;;;;;;5080387;28;20043;-55
2023/04/27 10:21:17;;;;;;;1.20;0.88;;;;;;;;;;5056877;28;20499;-55
2023/04/27 10:23:50;;;;;;;1.23;1.13;;;18.10;98.30;;;;;;5034267;28;20128;-54
2023/04/27 10:26:23;;;;;;;1.27;0.70;;;;;;;;;;5075672;28;20054;-53
2023/04/27 10:29:17;;;;;;;1.27;1.17;;;18.60;92.90;;;;;;5067455;28;20037;-53
2023/04/27 10:31:47;;;;;;;1.20;1.13;;;18.40;91.60;;;;;;5066478;28;20045;-52
2023/04/27 10:34:16;;;;;;;1.27;0.90;;;18.20;93.10;;;;;;5075949;28;20111;-52
2023/04/27 10:36:43;;;;;;;3.70;1.27;;;18.20;92.60;;;;;;5086013;28;20029;-52
2023/04/27 10:39:21;;;;;;;0.65;0.60;;;;;;;;;;5080164;28;20020;-51
2023/04/27 10:41:54;;;;;;;0.70;0.70;;;18.60;95.10;;;;;;5078495;28;20032;-51
2023/04/27 10:44:29;;;;;;;2.38;1.05;;;18.40;95.80;;;;;;5077510;28;20103;-51
2023/04/27 10:46:58;;;;;;;0.75;0.60;;;18.10;92.40;;;;;;5074581;28;20047;-52
2023/04/27 10:49:27;;;;;;;2.05;0.75;;;17.90;92.60;;;;;;5075267;28;20044;-53
2023/04/27 10:51:53;;;;;;;2.03;1.50;;;17.70;93.50;;;;;;5077093;28;20028;-51
2023/04/27 10:54:18;;;;;;;2.97;2.10;;;17.90;93.90;;;;;;5077071;28;20133;-51
2023/04/27 10:56:44;;;;;;;0.85;0.70;;;18.40;95.10;;;;;;5023694;28;20164;-51
2023/04/27 10:59:11;;;;;;;1.48;1.25;;;;;;;;;;5087078;28;20028;-52
2023/04/27 11:01:37;;;;;;;1.35;1.00;;;18.40;94.80;;;;;;5072133;28;20029;-51
2023/04/27 11:04:03;;;;;;;4.00;2.35;;;18.30;94.40;;;;;;5008198;28;20051;-50
2023/04/27 11:06:32;;;;;;;2.03;0.88;;;18.20;94.40;;;;;;5082244;28;20028;-51
2023/04/27 11:08:58;;;;;;;1.02;0.63;;;;;;;;;;5023187;28;20487;-52
2023/04/27 11:11:25;;;;;;;1.85;0.93;;;;;;;;;;5078975;28;20036;-52
2023/04/27 11:13:54;;;;;;;1.73;0.90;;;;;;;;;;5072426;28;20028;-52
2023/04/27 11:16:21;;;;;;;0.47;0.47;;;;;;;;;;5073946;28;20024;-52
2023/04/27 11:18:47;;;;;;;2.75;1.27;;;;;;;;;;5038424;28;20483;-51
2023/04/27 11:21:17;;;;;;;1.25;0.73;;;;;;;;;;5081338;28;20031;-51
2023/04/27 11:23:43;;;;;;;1.17;1.08;;;;;;;;;;5081069;28;20050;-51
2023/04/27 11:26:09;;;;;;;0.68;0.68;;;;;;;;;;5076425;28;20550;-52
2023/04/27 11:28:35;;;;;;;0.52;0.40;;;;;;;;;;5071068;28;20036;-52
2023/04/27 11:31:03;;;;;;;1.90;1.05;;;;;;;;;;5075072;28;20028;-52
2023/04/27 11:33:30;;;;;;;0.70;0.70;;;;;;;;;;5083894;28;20042;-53
2023/04/27 11:35:56;;;;;;;1.38;0.90;;;;;;;;;;5071623;28;20078;-51
2023/04/27 11:38:23;;;;;;;0.88;0.80;;;;;;;;;;5069921;28;20040;-52
2023/04/27 11:41:00;;;;;;;3.63;1.25;;;18.70;98.60;;;;;;5081073;28;20048;-51
2023/04/27 11:43:26;;;;;;;2.13;1.00;;;19.00;97.20;;;;;;5080944;28;20036;-52
2023/04/27 11:45:53;;;;;;;1.42;1.30;;;;;;;;;;5073025;28;20537;-52
2023/04/27 11:48:19;;;;;;;0.32;0.32;;;;;;;;;;5072803;28;20033;-52
2023/04/27 11:50:47;;;;;;;0.88;0.47;;;18.40;94.20;;;;;;5064411;28;20107;-52
2023/04/27 11:53:13;;;;;;;1.33;1.00;;;18.20;92.20;;;;;;5076536;28;20036;-52
2023/04/27 11:55:40;;;;;;;1.63;1.52;;;18.30;90.70;;;;;;5043289;28;20060;-52
2023/04/27 11:58:12;;;;;;;1.17;0.98;;;18.80;95.80;;;;;;5034598;28;20053;-51
2023/04/27 12:00:38;;;;;;;1.00;0.70;;;18.50;97.60;;;;;;5033775;28;20536;-51
2023/04/27 12:03:04;;;;;;;0.52;0.50;;;;;;;;;;5006466;28;20037;-52
2023/04/27 12:05:30;;;;;;;3.35;1.15;;;18.30;99.90;;;;;;5031334;28;20166;-51
2023/04/27 12:07:56;;;;;;;0.30;0.30;;;18.40;96.90;;;;;;5029424;28;20161;-51
2023/04/27 12:10:21;;;;;;;0.17;0.17;;;17.90;95.80;;;;;;5035614;28;20060;-52
2023/04/27 12:12:47;;;;;;;1.90;1.38;;;17.80;89.20;;;;;;5032495;28;20025;-51
2023/04/27 12:15:13;;;;;;;0.30;0.30;;;18.20;96.40;;;;;;5031883;28;20065;-52
2023/04/27 12:17:39;;;;;;;1.52;1.27;;;17.90;96.40;;;;;;5032948;28;20029;-52
2023/04/27 12:20:05;;;;;;;1.30;1.08;;;;;;;;;;5034061;28;20083;-51
2023/04/27 12:22:31;;;;;;;4.07;1.70;;;17.40;99.90;;;;;;5005718;28;20120;-53
2023/04/27 12:24:57;;;;;;;2.28;1.58;;;;;;;;;;4981164;28;20129;-52
2023/04/27 12:27:23;;;;;;;1.00;0.90;;;18.90;97.30;;;;;;5008974;28;20052;-53
2023/04/27 12:29:49;;;;;;;2.50;1.63;;;18.20;96.70;;;;;;5044911;28;20053;-52
2023/04/27 12:32:15;;;;;;;2.55;1.33;;;17.80;84.80;;;;;;5029482;28;20033;-51
2023/04/27 12:34:41;;;;;;;1.98;1.55;;;;;;;;;;5042972;28;20507;-52
2023/04/27 12:37:07;;;;;;;0.88;0.88;;;;;;;;;;5085151;28;20441;-53
2023/04/27 12:39:33;;;;;;;1.58;1.30;;;17.20;99.90;;;;;;5073904;28;20024;-52
2023/04/27 12:42:00;;;;;;;2.53;2.00;;;;;;;;;;5076942;28;20388;-53
2023/04/27 12:44:26;;;;;;;1.65;1.10;;;17.30;95.10;;;;;;5080022;28;20432;-53
2023/04/27 12:46:52;;;;;;;0.55;0.55;;;17.40;95.40;;;;;;5070228;28;20115;-53
2023/04/27 12:49:18;;;;;;;0.82;0.82;;;;;;;;;;5035559;28;20048;-51
2023/04/27 12:51:45;;;;;;;1.42;1.25;;;17.90;99.90;;;;;;5043897;28;20043;-53
2023/04/27 12:54:11;;;;;;;1.00;0.88;;;17.90;99.90;;;;;;5044998;28;20043;-52
2023/04/27 12:56:37;;;;;;;1.48;1.02;;;17.50;99.70;;;;;;5039147;28;20435;-53
2023/04/27 12:59:03;;;;;;;2.45;1.80;;;17.40;89.40;;;;;;5078050;28;20048;-52
2023/04/27 13:01:32;;;;;;;3.30;2.95;;;17.30;95.40;;;;;;5084507;28;20365;-53
2023/04/27 13:04:00;;;;;;;1.92;1.50;;;;;;;;;;5073960;28;20073;-53
2023/04/27 13:06:27;;;;;;;4.15;1.15;;;;;;;;;;5080830;28;20361;-52
2023/04/27 13:08:53;;;;;;;3.35;1.80;;;;;;;;;;5067005;28;20044;-53
2023/04/27 13:11:19;;;;;;;1.25;0.95;;;;;;;;;;5086988;28;20029;-52
2023/04/27 13:13:47;;;;;;;3.42;0.82;;;;;;;;;;5034072;28;20387;-53
2023/04/27 13:16:14;;;;;;;1.30;0.90;;;;;;;;;;5075959;28;20032;-54